sensor_id;sensor_type;location;lat;lon;timestamp;P1;durP1;ratioP1;P2;durP2;ratioP2
44694;SDS011;32845;59.422;17.930;2023-12-20T00:02:05;9.88;;;1.42;;
44694;SDS011;32845;59.422;17.930;2023-12-20T00:06:35;11.88;;;1.50;;
44694;SDS011;32845;59.422;17.930;2023-12-20T00:11:06;13.60;;;1.55;;
44694;SDS011;32845;59.422;17.930;2023-12-20T00:15:36;7.35;;;1.30;;
44694;SDS011;32845;59.422;17.930;2023-12-20T00:20:07;10.05;;;1.17;;
44694;SDS011;32845;59.422;17.930;2023-12-20T00:24:38;12.75;;;1.52;;
44694;SDS011;32845;59.422;17.930;2023-12-20T00:29:08;12.73;;;1.73;;
44694;SDS011;32845;59.422;17.930;2023-12-20T00:33:39;14.85;;;1.73;;
44694;SDS011;32845;59.422;17.930;2023-12-20T00:38:13;12.30;;;1.40;;
44694;SDS011;32845;59.422;17.930;2023-12-20T00:42:44;14.85;;;3.17;;
44694;SDS011;32845;59.422;17.930;2023-12-20T00:47:16;9.95;;;1.48;;
44694;SDS011;32845;59.422;17.930;2023-12-20T00:51:47;13.27;;;1.40;;
44694;SDS011;32845;59.422;17.930;2023-12-20T00:56:20;10.05;;;1.30;;
44694;SDS011;32845;59.422;17.930;2023-12-20T01:00:51;10.18;;;1.58;;
44694;SDS011;32845;59.422;17.930;2023-12-20T01:05:22;7.97;;;1.13;;
44694;SDS011;32845;59.422;17.930;2023-12-20T01:09:53;10.35;;;1.45;;
44694;SDS011;32845;59.422;17.930;2023-12-20T01:14:23;12.52;;;1.10;;
44694;SDS011;32845;59.422;17.930;2023-12-20T01:18:54;9.98;;;1.55;;
44694;SDS011;32845;59.422;17.930;2023-12-20T01:23:25;9.27;;;1.33;;
44694;SDS011;32845;59.422;17.930;2023-12-20T01:27:55;11.73;;;1.52;;
44694;SDS011;32845;59.422;17.930;2023-12-20T01:32:26;11.57;;;1.33;;
44694;SDS011;32845;59.422;17.930;2023-12-20T01:36:57;8.10;;;1.73;;
44694;SDS011;32845;59.422;17.930;2023-12-20T01:41:27;7.47;;;1.17;;
44694;SDS011;32845;59.422;17.930;2023-12-20T01:46:03;22.35;;;2.72;;
44694;SDS011;32845;59.422;17.930;2023-12-20T01:50:35;12.50;;;1.70;;
44694;SDS011;32845;59.422;17.930;2023-12-20T01:55:07;11.45;;;1.33;;
44694;SDS011;32845;59.422;17.930;2023-12-20T01:59:43;12.95;;;1.35;;
44694;SDS011;32845;59.422;17.930;2023-12-20T02:04:14;13.65;;;1.55;;
44694;SDS011;32845;59.422;17.930;2023-12-20T02:08:46;9.95;;;1.80;;
44694;SDS011;32845;59.422;17.930;2023-12-20T02:13:17;15.25;;;1.75;;
44694;SDS011;32845;59.422;17.930;2023-12-20T02:17:47;13.32;;;1.50;;
44694;SDS011;32845;59.422;17.930;2023-12-20T02:22:19;14.82;;;1.52;;
44694;SDS011;32845;59.422;17.930;2023-12-20T02:26:49;19.20;;;1.67;;
44694;SDS011;32845;59.422;17.930;2023-12-20T02:31:23;12.20;;;1.05;;
44694;SDS011;32845;59.422;17.930;2023-12-20T02:35:53;10.38;;;1.15;;
44694;SDS011;32845;59.422;17.930;2023-12-20T02:40:24;16.42;;;1.48;;
44694;SDS011;32845;59.422;17.930;2023-12-20T02:44:54;9.93;;;1.55;;
44694;SDS011;32845;59.422;17.930;2023-12-20T02:49:25;10.63;;;2.08;;
44694;SDS011;32845;59.422;17.930;2023-12-20T02:53:56;22.13;;;1.45;;
44694;SDS011;32845;59.422;17.930;2023-12-20T02:58:26;18.52;;;2.35;;
44694;SDS011;32845;59.422;17.930;2023-12-20T03:02:57;15.13;;;1.23;;
44694;SDS011;32845;59.422;17.930;2023-12-20T03:07:29;12.40;;;1.23;;
44694;SDS011;32845;59.422;17.930;2023-12-20T03:12:00;13.55;;;1.27;;
44694;SDS011;32845;59.422;17.930;2023-12-20T03:16:30;14.60;;;1.70;;
44694;SDS011;32845;59.422;17.930;2023-12-20T03:21:03;12.10;;;1.40;;
44694;SDS011;32845;59.422;17.930;2023-12-20T03:25:34;9.27;;;1.48;;
44694;SDS011;32845;59.422;17.930;2023-12-20T03:30:05;13.40;;;1.42;;
44694;SDS011;32845;59.422;17.930;2023-12-20T03:34:36;10.20;;;1.30;;
44694;SDS011;32845;59.422;17.930;2023-12-20T03:39:06;9.88;;;1.48;;
44694;SDS011;32845;59.422;17.930;2023-12-20T03:43:37;9.68;;;1.50;;
44694;SDS011;32845;59.422;17.930;2023-12-20T03:48:08;12.13;;;1.42;;
44694;SDS011;32845;59.422;17.930;2023-12-20T03:52:38;5.63;;;1.00;;
44694;SDS011;32845;59.422;17.930;2023-12-20T03:57:09;8.48;;;0.82;;
44694;SDS011;32845;59.422;17.930;2023-12-20T04:01:42;9.45;;;1.30;;
44694;SDS011;32845;59.422;17.930;2023-12-20T04:06:17;7.43;;;0.73;;
44694;SDS011;32845;59.422;17.930;2023-12-20T04:10:48;13.18;;;1.85;;
44694;SDS011;32845;59.422;17.930;2023-12-20T04:15:19;12.23;;;1.67;;
44694;SDS011;32845;59.422;17.930;2023-12-20T04:19:49;14.93;;;0.80;;
44694;SDS011;32845;59.422;17.930;2023-12-20T04:24:21;14.73;;;1.40;;
44694;SDS011;32845;59.422;17.930;2023-12-20T04:28:52;11.88;;;1.60;;
44694;SDS011;32845;59.422;17.930;2023-12-20T04:33:23;10.15;;;1.45;;
44694;SDS011;32845;59.422;17.930;2023-12-20T04:37:53;16.92;;;2.17;;
44694;SDS011;32845;59.422;17.930;2023-12-20T04:42:24;11.57;;;1.63;;
44694;SDS011;32845;59.422;17.930;2023-12-20T04:46:54;6.15;;;0.75;;
44694;SDS011;32845;59.422;17.930;2023-12-20T04:51:26;12.43;;;1.42;;
44694;SDS011;32845;59.422;17.930;2023-12-20T04:55:57;12.00;;;1.08;;
44694;SDS011;32845;59.422;17.930;2023-12-20T05:00:28;7.05;;;1.20;;
44694;SDS011;32845;59.422;17.930;2023-12-20T05:04:58;9.77;;;1.30;;
44694;SDS011;32845;59.422;17.930;2023-12-20T05:09:29;18.23;;;2.83;;
44694;SDS011;32845;59.422;17.930;2023-12-20T05:13:59;7.40;;;1.10;;
44694;SDS011;32845;59.422;17.930;2023-12-20T05:18:30;5.63;;;1.20;;
44694;SDS011;32845;59.422;17.930;2023-12-20T05:23:00;11.40;;;1.20;;
44694;SDS011;32845;59.422;17.930;2023-12-20T05:27:31;7.15;;;0.82;;
44694;SDS011;32845;59.422;17.930;2023-12-20T05:32:02;11.10;;;1.20;;
44694;SDS011;32845;59.422;17.930;2023-12-20T05:36:34;11.65;;;2.10;;
44694;SDS011;32845;59.422;17.930;2023-12-20T05:41:05;4.97;;;1.10;;
44694;SDS011;32845;59.422;17.930;2023-12-20T05:45:36;14.85;;;1.77;;
44694;SDS011;32845;59.422;17.930;2023-12-20T05:50:07;9.00;;;1.23;;
44694;SDS011;32845;59.422;17.930;2023-12-20T05:54:38;17.42;;;1.20;;
44694;SDS011;32845;59.422;17.930;2023-12-20T05:59:08;10.23;;;1.27;;
44694;SDS011;32845;59.422;17.930;2023-12-20T06:03:41;17.83;;;1.90;;
44694;SDS011;32845;59.422;17.930;2023-12-20T06:08:11;9.20;;;1.38;;
44694;SDS011;32845;59.422;17.930;2023-12-20T06:12:42;19.65;;;1.88;;
44694;SDS011;32845;59.422;17.930;2023-12-20T06:17:13;6.30;;;1.38;;
44694;SDS011;32845;59.422;17.930;2023-12-20T06:21:43;21.48;;;2.25;;
44694;SDS011;32845;59.422;17.930;2023-12-20T06:26:14;6.47;;;1.40;;
44694;SDS011;32845;59.422;17.930;2023-12-20T06:30:44;13.68;;;1.83;;
44694;SDS011;32845;59.422;17.930;2023-12-20T06:35:17;9.05;;;1.70;;
44694;SDS011;32845;59.422;17.930;2023-12-20T06:39:47;12.70;;;1.48;;
44694;SDS011;32845;59.422;17.930;2023-12-20T06:44:18;23.98;;;2.28;;
44694;SDS011;32845;59.422;17.930;2023-12-20T06:48:48;19.38;;;2.22;;
44694;SDS011;32845;59.422;17.930;2023-12-20T06:53:19;16.05;;;2.38;;
44694;SDS011;32845;59.422;17.930;2023-12-20T06:57:50;19.13;;;2.15;;
44694;SDS011;32845;59.422;17.930;2023-12-20T07:02:21;27.55;;;1.67;;
44694;SDS011;32845;59.422;17.930;2023-12-20T07:06:52;15.10;;;2.15;;
44694;SDS011;32845;59.422;17.930;2023-12-20T07:11:26;15.43;;;2.63;;
44694;SDS011;32845;59.422;17.930;2023-12-20T07:15:57;15.40;;;2.85;;
44694;SDS011;32845;59.422;17.930;2023-12-20T07:20:27;6.68;;;2.65;;
44694;SDS011;32845;59.422;17.930;2023-12-20T07:24:58;19.17;;;3.78;;
44694;SDS011;32845;59.422;17.930;2023-12-20T07:29:30;15.10;;;3.05;;
44694;SDS011;32845;59.422;17.930;2023-12-20T07:34:00;24.55;;;3.67;;
44694;SDS011;32845;59.422;17.930;2023-12-20T07:38:31;22.08;;;4.18;;
44694;SDS011;32845;59.422;17.930;2023-12-20T07:43:01;17.40;;;3.38;;
44694;SDS011;32845;59.422;17.930;2023-12-20T07:47:32;15.65;;;3.30;;
44694;SDS011;32845;59.422;17.930;2023-12-20T07:52:03;14.05;;;3.50;;
44694;SDS011;32845;59.422;17.930;2023-12-20T07:56:33;19.23;;;3.67;;
44694;SDS011;32845;59.422;17.930;2023-12-20T08:01:04;17.52;;;4.00;;
44694;SDS011;32845;59.422;17.930;2023-12-20T08:05:35;24.77;;;4.18;;
44694;SDS011;32845;59.422;17.930;2023-12-20T08:10:06;16.30;;;4.35;;
44694;SDS011;32845;59.422;17.930;2023-12-20T08:14:37;30.55;;;4.60;;
44694;SDS011;32845;59.422;17.930;2023-12-20T08:19:07;21.30;;;4.75;;
44694;SDS011;32845;59.422;17.930;2023-12-20T08:23:38;33.55;;;5.22;;
44694;SDS011;32845;59.422;17.930;2023-12-20T08:28:09;30.58;;;6.32;;
44694;SDS011;32845;59.422;17.930;2023-12-20T08:32:39;19.70;;;5.97;;
44694;SDS011;32845;59.422;17.930;2023-12-20T08:37:10;27.77;;;4.95;;
44694;SDS011;32845;59.422;17.930;2023-12-20T08:41:43;25.17;;;4.05;;
44694;SDS011;32845;59.422;17.930;2023-12-20T08:46:14;24.90;;;4.68;;
44694;SDS011;32845;59.422;17.930;2023-12-20T08:50:45;26.98;;;4.95;;
44694;SDS011;32845;59.422;17.930;2023-12-20T08:55:17;22.55;;;4.00;;
44694;SDS011;32845;59.422;17.930;2023-12-20T08:59:49;26.90;;;4.18;;
44694;SDS011;32845;59.422;17.930;2023-12-20T09:04:20;16.15;;;4.30;;
44694;SDS011;32845;59.422;17.930;2023-12-20T09:08:51;19.00;;;3.80;;
44694;SDS011;32845;59.422;17.930;2023-12-20T09:13:21;28.05;;;3.70;;
44694;SDS011;32845;59.422;17.930;2023-12-20T09:17:57;17.50;;;4.28;;
44694;SDS011;32845;59.422;17.930;2023-12-20T09:22:28;24.88;;;3.55;;
44694;SDS011;32845;59.422;17.930;2023-12-20T09:26:59;16.10;;;3.78;;
44694;SDS011;32845;59.422;17.930;2023-12-20T09:31:29;16.75;;;5.07;;
44694;SDS011;32845;59.422;17.930;2023-12-20T09:36:00;25.40;;;8.60;;
44694;SDS011;32845;59.422;17.930;2023-12-20T09:40:31;34.00;;;8.50;;
44694;SDS011;32845;59.422;17.930;2023-12-20T09:45:03;28.92;;;7.47;;
44694;SDS011;32845;59.422;17.930;2023-12-20T09:49:38;22.42;;;5.78;;
44694;SDS011;32845;59.422;17.930;2023-12-20T09:54:09;22.88;;;4.75;;
44694;SDS011;32845;59.422;17.930;2023-12-20T09:58:40;23.95;;;5.28;;
44694;SDS011;32845;59.422;17.930;2023-12-20T10:03:11;25.70;;;4.70;;
44694;SDS011;32845;59.422;17.930;2023-12-20T10:07:43;25.85;;;5.60;;
44694;SDS011;32845;59.422;17.930;2023-12-20T10:12:14;20.83;;;5.85;;
44694;SDS011;32845;59.422;17.930;2023-12-20T10:16:45;18.33;;;5.05;;
44694;SDS011;32845;59.422;17.930;2023-12-20T10:21:15;17.17;;;4.30;;
44694;SDS011;32845;59.422;17.930;2023-12-20T10:25:57;12.05;;;2.70;;
44694;SDS011;32845;59.422;17.930;2023-12-20T10:30:30;16.08;;;2.35;;
44694;SDS011;32845;59.422;17.930;2023-12-20T10:35:01;8.45;;;2.33;;
44694;SDS011;32845;59.422;17.930;2023-12-20T10:39:32;16.45;;;2.38;;
44694;SDS011;32845;59.422;17.930;2023-12-20T10:44:03;15.93;;;2.65;;
44694;SDS011;32845;59.422;17.930;2023-12-20T10:48:37;17.80;;;2.78;;
44694;SDS011;32845;59.422;17.930;2023-12-20T10:53:09;13.88;;;2.60;;
44694;SDS011;32845;59.422;17.930;2023-12-20T10:57:42;25.88;;;5.28;;
44694;SDS011;32845;59.422;17.930;2023-12-20T11:02:21;17.80;;;5.10;;
44694;SDS011;32845;59.422;17.930;2023-12-20T11:06:56;16.38;;;2.90;;
44694;SDS011;32845;59.422;17.930;2023-12-20T11:16:25;19.05;;;2.03;;
44694;SDS011;32845;59.422;17.930;2023-12-20T11:20:55;11.57;;;2.45;;
44694;SDS011;32845;59.422;17.930;2023-12-20T11:25:50;13.13;;;1.80;;
44694;SDS011;32845;59.422;17.930;2023-12-20T11:30:23;12.07;;;2.17;;
44694;SDS011;32845;59.422;17.930;2023-12-20T11:34:54;8.52;;;1.80;;
44694;SDS011;32845;59.422;17.930;2023-12-20T11:39:27;15.98;;;2.13;;
44694;SDS011;32845;59.422;17.930;2023-12-20T11:43:58;12.52;;;2.78;;
44694;SDS011;32845;59.422;17.930;2023-12-20T11:48:31;9.23;;;2.30;;
44694;SDS011;32845;59.422;17.930;2023-12-20T11:53:02;9.13;;;2.15;;
44694;SDS011;32845;59.422;17.930;2023-12-20T11:57:33;10.45;;;1.83;;
44694;SDS011;32845;59.422;17.930;2023-12-20T12:02:05;7.97;;;2.17;;
44694;SDS011;32845;59.422;17.930;2023-12-20T12:06:36;9.45;;;2.47;;
44694;SDS011;32845;59.422;17.930;2023-12-20T12:11:07;14.60;;;1.90;;
44694;SDS011;32845;59.422;17.930;2023-12-20T12:15:37;13.07;;;2.25;;
44694;SDS011;32845;59.422;17.930;2023-12-20T12:20:08;17.08;;;2.20;;
44694;SDS011;32845;59.422;17.930;2023-12-20T12:24:40;13.02;;;2.28;;
44694;SDS011;32845;59.422;17.930;2023-12-20T12:29:12;11.02;;;2.13;;
44694;SDS011;32845;59.422;17.930;2023-12-20T12:33:42;6.57;;;2.10;;
44694;SDS011;32845;59.422;17.930;2023-12-20T12:38:15;12.32;;;2.00;;
44694;SDS011;32845;59.422;17.930;2023-12-20T12:42:46;11.30;;;2.30;;
44694;SDS011;32845;59.422;17.930;2023-12-20T12:47:16;4.53;;;1.75;;
44694;SDS011;32845;59.422;17.930;2023-12-20T12:51:47;6.85;;;2.17;;
44694;SDS011;32845;59.422;17.930;2023-12-20T12:56:18;10.13;;;2.15;;
44694;SDS011;32845;59.422;17.930;2023-12-20T13:00:48;6.40;;;1.95;;
44694;SDS011;32845;59.422;17.930;2023-12-20T13:05:19;5.32;;;1.73;;
44694;SDS011;32845;59.422;17.930;2023-12-20T13:09:50;2.35;;;1.20;;
44694;SDS011;32845;59.422;17.930;2023-12-20T13:14:20;6.30;;;1.40;;
44694;SDS011;32845;59.422;17.930;2023-12-20T13:18:51;9.00;;;1.73;;
44694;SDS011;32845;59.422;17.930;2023-12-20T13:23:22;9.85;;;1.60;;
44694;SDS011;32845;59.422;17.930;2023-12-20T13:27:53;9.52;;;1.63;;
44694;SDS011;32845;59.422;17.930;2023-12-20T13:32:26;4.57;;;1.50;;
44694;SDS011;32845;59.422;17.930;2023-12-20T13:36:57;7.05;;;2.10;;
44694;SDS011;32845;59.422;17.930;2023-12-20T13:41:28;11.07;;;1.92;;
44694;SDS011;32845;59.422;17.930;2023-12-20T13:45:59;5.30;;;2.25;;
44694;SDS011;32845;59.422;17.930;2023-12-20T13:50:29;7.65;;;2.75;;
44694;SDS011;32845;59.422;17.930;2023-12-20T13:55:00;9.38;;;2.10;;
44694;SDS011;32845;59.422;17.930;2023-12-20T13:59:30;8.55;;;1.65;;
44694;SDS011;32845;59.422;17.930;2023-12-20T14:04:01;6.53;;;1.92;;
44694;SDS011;32845;59.422;17.930;2023-12-20T14:08:32;10.45;;;2.10;;
44694;SDS011;32845;59.422;17.930;2023-12-20T14:13:02;9.35;;;1.90;;
44694;SDS011;32845;59.422;17.930;2023-12-20T14:17:33;16.17;;;2.10;;
44694;SDS011;32845;59.422;17.930;2023-12-20T14:22:04;10.98;;;2.38;;
44694;SDS011;32845;59.422;17.930;2023-12-20T14:26:34;15.18;;;2.20;;
44694;SDS011;32845;59.422;17.930;2023-12-20T14:31:05;13.20;;;2.10;;
44694;SDS011;32845;59.422;17.930;2023-12-20T14:35:35;11.52;;;2.10;;
44694;SDS011;32845;59.422;17.930;2023-12-20T14:40:06;11.15;;;2.28;;
44694;SDS011;32845;59.422;17.930;2023-12-20T14:44:40;15.35;;;2.25;;
44694;SDS011;32845;59.422;17.930;2023-12-20T14:49:11;11.68;;;2.35;;
44694;SDS011;32845;59.422;17.930;2023-12-20T14:53:42;11.93;;;1.90;;
44694;SDS011;32845;59.422;17.930;2023-12-20T14:58:12;8.80;;;2.35;;
44694;SDS011;32845;59.422;17.930;2023-12-20T15:02:45;13.90;;;2.50;;
44694;SDS011;32845;59.422;17.930;2023-12-20T15:07:15;9.05;;;1.90;;
44694;SDS011;32845;59.422;17.930;2023-12-20T15:11:47;11.48;;;1.95;;
44694;SDS011;32845;59.422;17.930;2023-12-20T15:16:17;9.70;;;2.10;;
44694;SDS011;32845;59.422;17.930;2023-12-20T15:20:48;7.05;;;2.08;;
44694;SDS011;32845;59.422;17.930;2023-12-20T15:25:19;38.03;;;2.25;;
44694;SDS011;32845;59.422;17.930;2023-12-20T15:29:51;5.28;;;1.75;;
44694;SDS011;32845;59.422;17.930;2023-12-20T15:34:22;10.63;;;1.60;;
44694;SDS011;32845;59.422;17.930;2023-12-20T15:38:53;13.50;;;1.80;;
44694;SDS011;32845;59.422;17.930;2023-12-20T15:43:23;10.05;;;1.95;;
44694;SDS011;32845;59.422;17.930;2023-12-20T15:47:55;20.23;;;2.15;;
44694;SDS011;32845;59.422;17.930;2023-12-20T15:52:26;12.45;;;1.90;;
44694;SDS011;32845;59.422;17.930;2023-12-20T15:56:56;4.68;;;1.60;;
44694;SDS011;32845;59.422;17.930;2023-12-20T16:01:28;9.70;;;2.22;;
44694;SDS011;32845;59.422;17.930;2023-12-20T16:05:59;8.32;;;1.95;;
44694;SDS011;32845;59.422;17.930;2023-12-20T16:10:30;5.13;;;1.73;;
44694;SDS011;32845;59.422;17.930;2023-12-20T16:15:00;13.93;;;2.00;;
44694;SDS011;32845;59.422;17.930;2023-12-20T16:19:32;5.57;;;1.35;;
44694;SDS011;32845;59.422;17.930;2023-12-20T16:24:02;11.55;;;1.90;;
44694;SDS011;32845;59.422;17.930;2023-12-20T16:28:33;10.57;;;2.05;;
44694;SDS011;32845;59.422;17.930;2023-12-20T16:33:04;12.15;;;2.33;;
44694;SDS011;32845;59.422;17.930;2023-12-20T16:37:34;9.57;;;1.40;;
44694;SDS011;32845;59.422;17.930;2023-12-20T16:42:08;11.50;;;1.90;;
44694;SDS011;32845;59.422;17.930;2023-12-20T16:46:38;8.98;;;2.17;;
44694;SDS011;32845;59.422;17.930;2023-12-20T16:51:09;4.85;;;1.70;;
44694;SDS011;32845;59.422;17.930;2023-12-20T16:55:40;8.55;;;1.83;;
44694;SDS011;32845;59.422;17.930;2023-12-20T17:00:13;14.65;;;1.95;;
44694;SDS011;32845;59.422;17.930;2023-12-20T17:04:45;12.73;;;2.17;;
44694;SDS011;32845;59.422;17.930;2023-12-20T17:09:16;4.70;;;1.90;;
44694;SDS011;32845;59.422;17.930;2023-12-20T17:13:46;7.10;;;1.90;;
44694;SDS011;32845;59.422;17.930;2023-12-20T17:18:17;8.77;;;2.13;;
44694;SDS011;32845;59.422;17.930;2023-12-20T17:22:47;8.32;;;1.92;;
44694;SDS011;32845;59.422;17.930;2023-12-20T17:27:18;8.63;;;2.63;;
44694;SDS011;32845;59.422;17.930;2023-12-20T17:31:48;7.65;;;1.80;;
44694;SDS011;32845;59.422;17.930;2023-12-20T17:36:19;11.48;;;2.83;;
44694;SDS011;32845;59.422;17.930;2023-12-20T17:40:50;21.42;;;2.80;;
44694;SDS011;32845;59.422;17.930;2023-12-20T17:45:25;9.15;;;2.10;;
44694;SDS011;32845;59.422;17.930;2023-12-20T17:49:56;7.50;;;1.65;;
44694;SDS011;32845;59.422;17.930;2023-12-20T17:54:27;9.75;;;1.83;;
44694;SDS011;32845;59.422;17.930;2023-12-20T17:58:59;13.05;;;2.50;;
44694;SDS011;32845;59.422;17.930;2023-12-20T18:03:31;15.73;;;1.80;;
44694;SDS011;32845;59.422;17.930;2023-12-20T18:08:01;18.58;;;2.90;;
44694;SDS011;32845;59.422;17.930;2023-12-20T18:12:32;10.52;;;1.95;;
44694;SDS011;32845;59.422;17.930;2023-12-20T18:17:03;9.05;;;2.33;;
44694;SDS011;32845;59.422;17.930;2023-12-20T18:21:34;13.65;;;2.60;;
44694;SDS011;32845;59.422;17.930;2023-12-20T18:26:04;10.88;;;2.58;;
44694;SDS011;32845;59.422;17.930;2023-12-20T18:30:35;13.82;;;2.63;;
44694;SDS011;32845;59.422;17.930;2023-12-20T18:35:10;11.82;;;2.33;;
44694;SDS011;32845;59.422;17.930;2023-12-20T18:39:41;17.15;;;2.95;;
44694;SDS011;32845;59.422;17.930;2023-12-20T18:44:11;6.25;;;2.53;;
44694;SDS011;32845;59.422;17.930;2023-12-20T18:48:42;19.77;;;2.90;;
44694;SDS011;32845;59.422;17.930;2023-12-20T18:53:14;7.60;;;2.95;;
44694;SDS011;32845;59.422;17.930;2023-12-20T18:57:46;6.60;;;2.92;;
44694;SDS011;32845;59.422;17.930;2023-12-20T19:02:17;10.18;;;2.83;;
44694;SDS011;32845;59.422;17.930;2023-12-20T19:06:48;12.38;;;3.47;;
44694;SDS011;32845;59.422;17.930;2023-12-20T19:11:19;8.70;;;2.75;;
44694;SDS011;32845;59.422;17.930;2023-12-20T19:15:50;9.02;;;2.83;;
44694;SDS011;32845;59.422;17.930;2023-12-20T19:20:21;11.35;;;3.20;;
44694;SDS011;32845;59.422;17.930;2023-12-20T19:24:51;10.98;;;3.22;;
44694;SDS011;32845;59.422;17.930;2023-12-20T19:29:22;8.48;;;2.90;;
44694;SDS011;32845;59.422;17.930;2023-12-20T19:33:53;9.88;;;3.50;;
44694;SDS011;32845;59.422;17.930;2023-12-20T19:38:25;9.00;;;3.22;;
44694;SDS011;32845;59.422;17.930;2023-12-20T19:42:56;9.93;;;3.20;;
44694;SDS011;32845;59.422;17.930;2023-12-20T19:47:27;6.55;;;2.97;;
44694;SDS011;32845;59.422;17.930;2023-12-20T19:51:58;10.90;;;4.22;;
44694;SDS011;32845;59.422;17.930;2023-12-20T19:56:29;16.52;;;4.35;;
44694;SDS011;32845;59.422;17.930;2023-12-20T20:00:59;11.90;;;4.32;;
44694;SDS011;32845;59.422;17.930;2023-12-20T20:05:35;20.83;;;3.60;;
44694;SDS011;32845;59.422;17.930;2023-12-20T20:10:06;10.70;;;3.03;;
44694;SDS011;32845;59.422;17.930;2023-12-20T20:14:37;9.18;;;3.55;;
44694;SDS011;32845;59.422;17.930;2023-12-20T20:19:07;15.90;;;3.75;;
44694;SDS011;32845;59.422;17.930;2023-12-20T20:23:38;11.30;;;3.83;;
44694;SDS011;32845;59.422;17.930;2023-12-20T20:28:08;14.98;;;3.92;;
44694;SDS011;32845;59.422;17.930;2023-12-20T20:32:39;13.07;;;4.50;;
44694;SDS011;32845;59.422;17.930;2023-12-20T20:37:10;21.48;;;4.15;;
44694;SDS011;32845;59.422;17.930;2023-12-20T20:41:41;10.18;;;3.78;;
44694;SDS011;32845;59.422;17.930;2023-12-20T20:46:12;11.65;;;3.45;;
44694;SDS011;32845;59.422;17.930;2023-12-20T20:50:43;17.85;;;3.80;;
44694;SDS011;32845;59.422;17.930;2023-12-20T20:55:13;13.82;;;4.45;;
44694;SDS011;32845;59.422;17.930;2023-12-20T20:59:44;15.68;;;4.78;;
44694;SDS011;32845;59.422;17.930;2023-12-20T21:04:16;11.07;;;4.38;;
44694;SDS011;32845;59.422;17.930;2023-12-20T21:08:46;12.25;;;4.65;;
44694;SDS011;32845;59.422;17.930;2023-12-20T21:13:17;13.70;;;5.10;;
44694;SDS011;32845;59.422;17.930;2023-12-20T21:17:48;18.40;;;5.10;;
44694;SDS011;32845;59.422;17.930;2023-12-20T21:22:18;14.50;;;4.80;;
44694;SDS011;32845;59.422;17.930;2023-12-20T21:26:49;9.35;;;3.75;;
44694;SDS011;32845;59.422;17.930;2023-12-20T21:31:20;10.18;;;4.10;;
44694;SDS011;32845;59.422;17.930;2023-12-20T21:35:50;11.43;;;3.30;;
44694;SDS011;32845;59.422;17.930;2023-12-20T21:40:21;17.15;;;3.97;;
44694;SDS011;32845;59.422;17.930;2023-12-20T21:44:52;13.05;;;3.40;;
44694;SDS011;32845;59.422;17.930;2023-12-20T21:49:22;13.00;;;4.20;;
44694;SDS011;32845;59.422;17.930;2023-12-20T21:53:53;15.43;;;3.75;;
44694;SDS011;32845;59.422;17.930;2023-12-20T21:58:30;11.77;;;4.63;;
44694;SDS011;32845;59.422;17.930;2023-12-20T22:03:01;9.38;;;3.00;;
44694;SDS011;32845;59.422;17.930;2023-12-20T22:07:38;7.60;;;3.25;;
44694;SDS011;32845;59.422;17.930;2023-12-20T22:12:09;12.60;;;3.53;;
44694;SDS011;32845;59.422;17.930;2023-12-20T22:16:40;14.48;;;3.38;;
44694;SDS011;32845;59.422;17.930;2023-12-20T22:21:11;27.77;;;6.90;;
44694;SDS011;32845;59.422;17.930;2023-12-20T22:25:41;8.10;;;3.05;;
44694;SDS011;32845;59.422;17.930;2023-12-20T22:30:13;8.55;;;2.47;;
44694;SDS011;32845;59.422;17.930;2023-12-20T22:34:44;10.07;;;2.30;;
44694;SDS011;32845;59.422;17.930;2023-12-20T22:39:15;4.53;;;1.98;;
44694;SDS011;32845;59.422;17.930;2023-12-20T22:43:45;3.67;;;1.67;;
44694;SDS011;32845;59.422;17.930;2023-12-20T22:48:16;8.60;;;1.90;;
44694;SDS011;32845;59.422;17.930;2023-12-20T22:52:46;2.65;;;1.23;;
44694;SDS011;32845;59.422;17.930;2023-12-20T22:57:17;4.45;;;1.55;;
44694;SDS011;32845;59.422;17.930;2023-12-20T23:01:48;3.35;;;1.25;;
44694;SDS011;32845;59.422;17.930;2023-12-20T23:06:18;2.35;;;1.15;;
44694;SDS011;32845;59.422;17.930;2023-12-20T23:10:49;3.47;;;1.50;;
44694;SDS011;32845;59.422;17.930;2023-12-20T23:15:19;1.65;;;1.00;;
44694;SDS011;32845;59.422;17.930;2023-12-20T23:19:50;2.63;;;0.90;;
44694;SDS011;32845;59.422;17.930;2023-12-20T23:24:20;4.00;;;0.80;;
44694;SDS011;32845;59.422;17.930;2023-12-20T23:28:51;2.40;;;1.20;;
44694;SDS011;32845;59.422;17.930;2023-12-20T23:33:22;1.15;;;0.80;;
44694;SDS011;32845;59.422;17.930;2023-12-20T23:37:53;1.60;;;0.80;;
44694;SDS011;32845;59.422;17.930;2023-12-20T23:42:23;1.77;;;0.88;;
44694;SDS011;32845;59.422;17.930;2023-12-20T23:46:54;5.18;;;1.23;;
44694;SDS011;32845;59.422;17.930;2023-12-20T23:51:25;5.13;;;1.30;;
44694;SDS011;32845;59.422;17.930;2023-12-20T23:55:56;2.92;;;1.40;;
